createdAt,value
2022-12-05T00:01:27.006Z,101561.94
2022-12-05T00:04:14.015Z,101566.09
2022-12-05T00:06:59.178Z,101544.88
2022-12-05T00:09:44.695Z,101554.28
2022-12-05T00:12:29.695Z,101564.78
2022-12-05T00:15:15.130Z,101529.09
2022-12-05T00:18:00.484Z,101544.25
2022-12-05T00:20:46.923Z,101539.94
2022-12-05T00:23:32.321Z,101552.72
2022-12-05T00:26:17.703Z,101559.59
2022-12-05T00:29:03.754Z,101533.22
2022-12-05T00:31:49.063Z,101543.31
2022-12-05T00:34:34.261Z,101549.19
2022-12-05T00:37:19.821Z,101545.88
2022-12-05T00:40:05.940Z,101545.81
2022-12-05T00:42:52.575Z,101552.59
2022-12-05T00:45:37.839Z,101554.28
2022-12-05T00:48:22.872Z,101553.34
2022-12-05T00:51:12.098Z,101535.50
2022-12-05T00:54:07.187Z,101550.91
2022-12-05T00:56:56.332Z,101552.59
2022-12-05T00:59:41.757Z,101555.06
2022-12-05T01:02:26.860Z,101562.78
2022-12-05T01:05:13.171Z,101553.56
2022-12-05T01:07:58.157Z,101560.13
2022-12-05T01:10:53.107Z,101566.94
2022-12-05T01:13:38.340Z,101543.28
2022-12-05T01:16:24.858Z,101562.75
2022-12-05T01:19:15.247Z,101565.31
2022-12-05T01:22:00.835Z,101568.59
2022-12-05T01:24:46.049Z,101552.31
2022-12-05T01:27:31.503Z,101561.81
2022-12-05T01:30:16.863Z,101566.19
2022-12-05T01:33:02.226Z,101562.75
2022-12-05T01:35:47.456Z,101571.09
2022-12-05T01:38:32.814Z,101570.91
2022-12-05T01:41:21.564Z,101551.31
2022-12-05T01:44:12.795Z,101574.47
2022-12-05T01:46:58.011Z,101525.22
2022-12-05T01:49:44.042Z,101566.94
2022-12-05T01:52:31.707Z,101577.00
2022-12-05T01:55:18.905Z,101578.69
2022-12-05T01:58:06.729Z,101576.94
2022-12-05T02:00:52.133Z,101546.38
2022-12-05T02:03:38.015Z,101579.41
2022-12-05T02:06:25.641Z,101576.09
2022-12-05T02:09:10.568Z,101576.84
2022-12-05T02:12:00.735Z,101581.09
2022-12-05T02:15:13.725Z,101583.69
2022-12-05T02:18:09.379Z,101564.78
2022-12-05T02:21:25.575Z,101587.06
2022-12-05T02:24:17.024Z,101583.66
2022-12-05T02:27:01.811Z,101583.44
2022-12-05T02:29:58.104Z,101578.28
2022-12-05T02:32:49.796Z,101582.63
2022-12-05T02:35:43.025Z,101581.78
2022-12-05T02:38:45.064Z,101580.94
2022-12-05T02:41:33.285Z,101581.75
2022-12-05T02:44:56.822Z,101587.91
2022-12-05T02:47:50.114Z,101585.28
2022-12-05T02:50:38.951Z,101570.91
2022-12-05T02:53:27.063Z,101584.16
2022-12-05T02:56:12.763Z,101586.06
2022-12-05T02:58:57.802Z,101562.16
2022-12-05T03:01:46.028Z,101580.81
2022-12-05T03:04:31.972Z,101581.66
2022-12-05T03:07:20.063Z,101589.38
2022-12-05T03:10:08.297Z,101578.38
2022-12-05T03:13:03.136Z,101580.81
2022-12-05T03:15:53.380Z,101588.63
2022-12-05T03:18:52.758Z,101590.25
2022-12-05T03:21:46.398Z,101577.50
2022-12-05T03:24:31.836Z,101588.75
2022-12-05T03:27:35.384Z,101604.69
2022-12-05T03:30:23.005Z,101588.50
2022-12-05T03:33:15.332Z,101596.38
2022-12-05T03:36:18.402Z,101600.44
2022-12-05T03:39:19.686Z,101592.66
2022-12-05T03:42:14.390Z,101602.13
2022-12-05T03:45:16.056Z,101596.28
2022-12-05T03:48:14.212Z,101602.38
2022-12-05T03:51:01.115Z,101602.31
2022-12-05T03:53:59.685Z,101607.56
2022-12-05T03:57:12.253Z,101611.66
2022-12-05T04:00:09.950Z,101606.53
2022-12-05T04:03:02.678Z,101595.38
2022-12-05T04:06:01.436Z,101605.06
2022-12-05T04:08:58.361Z,101563.22
2022-12-05T04:11:46.868Z,101619.19
2022-12-05T04:14:42.038Z,101592.25
2022-12-05T04:17:31.464Z,101610.09
2022-12-05T04:21:10.914Z,101621.91
2022-12-05T04:24:14.500Z,101622.88
2022-12-05T04:27:27.734Z,101625.56
2022-12-05T04:30:25.534Z,101615.09
2022-12-05T04:33:32.447Z,101608.34
2022-12-05T04:36:33.915Z,101620.38
2022-12-05T04:39:41.081Z,101619.66
2022-12-05T04:42:29.837Z,101581.41
2022-12-05T04:45:19.374Z,101610.44
2022-12-05T04:48:11.862Z,101622.31
2022-12-05T04:50:57.364Z,101623.16
2022-12-05T04:53:45.357Z,101627.16
2022-12-05T04:56:33.695Z,101614.59
2022-12-05T04:59:18.848Z,101635.16
2022-12-05T05:02:08.225Z,101633.50
2022-12-05T05:04:57.846Z,101650.53
2022-12-05T05:07:45.809Z,101634.94
2022-12-05T05:10:50.773Z,101642.72
2022-12-05T05:13:35.722Z,101650.44
2022-12-05T05:16:30.341Z,101646.97
2022-12-05T05:19:15.627Z,101644.38
2022-12-05T05:22:00.899Z,101634.94
2022-12-05T05:24:46.266Z,101650.25
2022-12-05T05:27:31.449Z,101652.66
2022-12-05T05:30:17.642Z,101660.41
2022-12-05T05:33:02.541Z,101616.03
2022-12-05T05:35:47.844Z,101654.34
2022-12-05T05:38:41.513Z,101636.34
2022-12-05T05:41:30.965Z,101655.88
2022-12-05T05:44:15.978Z,101660.13
2022-12-05T05:47:01.265Z,101654.94
2022-12-05T05:49:46.571Z,101659.16
2022-12-05T05:52:38.194Z,101667.75
2022-12-05T05:55:23.556Z,101665.88
2022-12-05T05:58:09.476Z,101650.44
2022-12-05T06:00:54.543Z,101670.19
2022-12-05T06:03:40.753Z,101676.44
2022-12-05T06:06:26.463Z,101671.22
2022-12-05T06:09:11.377Z,101679.81
2022-12-05T06:11:56.658Z,101678.84
2022-12-05T06:14:41.828Z,101644.53
2022-12-05T06:17:27.113Z,101649.69
2022-12-05T06:20:12.606Z,101690.72
2022-12-05T06:22:57.679Z,101694.13
2022-12-05T06:25:48.517Z,101686.34
2022-12-05T06:28:33.840Z,101696.78
2022-12-05T06:31:22.887Z,101687.66
2022-12-05T06:34:07.963Z,101692.75
2022-12-05T06:36:53.132Z,101701.44
2022-12-05T06:39:38.793Z,101687.84
2022-12-05T06:42:23.879Z,101695.22
2022-12-05T06:45:09.189Z,101691.84
2022-12-05T06:47:54.299Z,101696.94
2022-12-05T06:50:39.431Z,101696.16
2022-12-05T06:53:24.628Z,101669.75
2022-12-05T06:56:12.746Z,101694.38
2022-12-05T06:58:58.071Z,101668.69
2022-12-05T07:01:43.919Z,101701.94
2022-12-05T07:04:29.512Z,101683.03
2022-12-05T07:07:14.872Z,101701.94
2022-12-05T07:10:00.563Z,101707.03
2022-12-05T07:12:45.962Z,101701.91
2022-12-05T07:15:31.291Z,101711.28
2022-12-05T07:18:17.600Z,101720.75
2022-12-05T07:21:13.897Z,101725.06
2022-12-05T07:23:59.754Z,101723.31
2022-12-05T07:26:44.825Z,101722.25
2022-12-05T07:29:30.213Z,101718.09
2022-12-05T07:32:15.752Z,101722.16
2022-12-05T07:35:00.952Z,101725.56
2022-12-05T07:37:46.144Z,101717.91
2022-12-05T07:40:31.563Z,101728.19
2022-12-05T07:43:16.483Z,101728.88
2022-12-05T07:46:06.959Z,101712.56
2022-12-05T07:48:52.850Z,101736.59
2022-12-05T07:51:38.936Z,101742.41
2022-12-05T07:54:24.169Z,101736.50
2022-12-05T07:57:09.614Z,101721.91
2022-12-05T07:59:54.462Z,101748.84
2022-12-05T08:02:40.936Z,101754.03
2022-12-05T08:05:26.556Z,101757.66
2022-12-05T08:08:11.813Z,101765.53
2022-12-05T08:11:02.420Z,101759.38
2022-12-05T08:13:48.586Z,101763.69
2022-12-05T08:16:34.113Z,101771.56
2022-12-05T08:19:19.337Z,101770.84
2022-12-05T08:22:04.449Z,101773.34
2022-12-05T08:24:56.168Z,101777.72
2022-12-05T08:27:41.483Z,101782.91
2022-12-05T08:30:27.535Z,101757.50
2022-12-05T08:33:12.938Z,101791.59
2022-12-05T08:36:03.586Z,101795.09
2022-12-05T08:38:48.807Z,101794.31
2022-12-05T08:41:34.564Z,101778.91
2022-12-05T08:44:19.906Z,101783.78
2022-12-05T08:47:05.164Z,101781.97
2022-12-05T08:49:50.371Z,101793.34
2022-12-05T08:52:35.605Z,101794.31
2022-12-05T08:55:20.856Z,101798.19
2022-12-05T08:58:06.070Z,101798.50
2022-12-05T09:00:51.338Z,101798.38
2022-12-05T09:03:36.884Z,101799.06
2022-12-05T09:06:24.562Z,101805.47
2022-12-05T09:09:11.704Z,101809.94
2022-12-05T09:11:57.871Z,101802.47
2022-12-05T09:14:42.992Z,101805.97
2022-12-05T09:17:27.782Z,101814.75
2022-12-05T09:20:13.975Z,101816.53
2022-12-05T09:22:58.907Z,101818.44
2022-12-05T09:25:43.988Z,101813.34
2022-12-05T09:28:30.006Z,101825.44
2022-12-05T09:31:21.602Z,101830.75
2022-12-05T09:34:07.155Z,101842.91
2022-12-05T09:37:05.434Z,101836.78
2022-12-05T09:39:51.070Z,101834.97
2022-12-05T09:42:58.759Z,101841.97
2022-12-05T09:45:54.031Z,101847.91
2022-12-05T09:48:40.959Z,101846.84
2022-12-05T09:51:26.798Z,101841.72
2022-12-05T09:54:13.163Z,101840.84
2022-12-05T09:56:58.857Z,101845.75
2022-12-05T09:59:44.353Z,101839.16
2022-12-05T10:02:44.993Z,101841.53
2022-12-05T10:05:41.644Z,101840.75
2022-12-05T10:08:38.020Z,101861.38
2022-12-05T10:11:36.208Z,101859.69
2022-12-05T10:14:43.059Z,101833.13
2022-12-05T10:17:37.848Z,101853.81
2022-12-05T10:20:30.815Z,101853.78
2022-12-05T10:23:49.357Z,101853.72
2022-12-05T10:26:45.767Z,101840.06
2022-12-05T10:29:40.475Z,101828.84
2022-12-05T10:32:36.365Z,101845.75
2022-12-05T10:35:24.797Z,101841.28
2022-12-05T10:38:25.824Z,101857.75
2022-12-05T10:41:13.932Z,101850.13
2022-12-05T10:43:59.771Z,101849.06
2022-12-05T10:46:45.187Z,101857.47
2022-12-05T10:49:32.687Z,101857.22
2022-12-05T10:52:17.829Z,101842.69
2022-12-05T10:55:06.610Z,101839.22
2022-12-05T10:58:10.354Z,101856.13
2022-12-05T11:01:06.995Z,101853.38
2022-12-05T11:04:01.044Z,101849.91
2022-12-05T11:06:53.434Z,101852.41
2022-12-05T11:09:39.271Z,101850.59
2022-12-05T11:12:28.376Z,101865.72
2022-12-05T11:15:16.926Z,101861.47
2022-12-05T11:18:32.543Z,101846.88
2022-12-05T11:21:19.482Z,101830.44
2022-12-05T11:24:31.577Z,101868.06
2022-12-05T11:27:16.557Z,101862.75
2022-12-05T11:30:22.365Z,101859.38
2022-12-05T11:33:29.001Z,101866.91
2022-12-05T11:36:23.370Z,101865.06
2022-12-05T11:39:12.030Z,101858.97
2022-12-05T11:42:20.003Z,101842.56
2022-12-05T11:45:48.881Z,101863.91
2022-12-05T11:48:58.900Z,101874.34
2022-12-05T11:52:05.752Z,101860.53
2022-12-05T11:55:14.786Z,101851.19
2022-12-05T11:58:26.938Z,101863.13
2022-12-05T12:01:18.484Z,101832.47
2022-12-05T12:04:25.205Z,101865.75
2022-12-05T12:07:16.141Z,101858.97
2022-12-05T12:10:10.404Z,101862.31
2022-12-05T12:13:19.917Z,101858.91
2022-12-05T12:16:15.601Z,101866.84
2022-12-05T12:19:19.752Z,101865.84
2022-12-05T12:22:26.241Z,101867.53
2022-12-05T12:25:20.458Z,101848.72
2022-12-05T12:28:41.619Z,101856.88
2022-12-05T12:32:00.756Z,101856.66
2022-12-05T12:34:49.566Z,101861.75
2022-12-05T12:37:51.318Z,101862.94
2022-12-05T12:40:39.590Z,101845.75
2022-12-05T12:43:53.297Z,101838.69
2022-12-05T12:46:53.791Z,101854.16
2022-12-05T12:49:53.913Z,101850.75
2022-12-05T12:52:59.221Z,101851.56
2022-12-05T12:56:01.387Z,101831.88
2022-12-05T12:58:58.822Z,101844.50
2022-12-05T13:01:48.257Z,101828.88
2022-12-05T13:04:49.845Z,101850.84
2022-12-05T13:07:45.741Z,101846.38
2022-12-05T13:10:35.927Z,101846.09
2022-12-05T13:13:27.502Z,101853.69
2022-12-05T13:16:23.152Z,101853.56
2022-12-05T13:19:23.312Z,101843.97
2022-12-05T13:22:08.867Z,101837.78
2022-12-05T13:24:54.881Z,101846.97
2022-12-05T13:27:42.800Z,101846.97
2022-12-05T13:30:28.686Z,101851.25
2022-12-05T13:33:25.367Z,101830.88
2022-12-05T13:36:35.323Z,101847.25
2022-12-05T13:39:41.351Z,101849.00
2022-12-05T13:42:31.908Z,101846.44
2022-12-05T13:45:20.041Z,101847.50
2022-12-05T13:48:22.390Z,101826.25
2022-12-05T13:51:25.342Z,101850.66
2022-12-05T13:54:19.569Z,101849.00
2022-12-05T13:57:05.246Z,101845.56
2022-12-05T14:00:05.856Z,101848.34
2022-12-05T14:02:53.669Z,101838.19
2022-12-05T14:05:47.743Z,101822.56
2022-12-05T14:08:35.794Z,101849.94
2022-12-05T14:11:21.225Z,101836.22
2022-12-05T14:14:10.301Z,101816.69
2022-12-05T14:16:55.556Z,101840.47
2022-12-05T14:19:53.783Z,101837.72
2022-12-05T14:23:12.715Z,101841.34
2022-12-05T14:26:13.963Z,101850.09
2022-12-05T14:29:17.178Z,101849.69
2022-12-05T14:32:23.860Z,101847.25
2022-12-05T14:35:30.109Z,101842.78
2022-12-05T14:38:30.309Z,101862.69
2022-12-05T14:41:27.352Z,101854.66
2022-12-05T14:44:19.471Z,101867.41
2022-12-05T14:47:06.983Z,101863.09
2022-12-05T14:50:02.169Z,101862.31
2022-12-05T14:53:33.386Z,101862.72
2022-12-05T14:56:25.010Z,101853.00
2022-12-05T14:59:30.057Z,101843.97
2022-12-05T15:02:22.394Z,101860.50
2022-12-05T15:05:27.834Z,101858.63
2022-12-05T15:08:15.632Z,101856.28
2022-12-05T15:11:01.206Z,101842.84
2022-12-05T15:13:47.260Z,101857.34
2022-12-05T15:16:33.553Z,101874.66
2022-12-05T15:19:44.329Z,101876.75
2022-12-05T15:22:35.121Z,101878.44
2022-12-05T15:25:22.217Z,101878.69
2022-12-05T15:28:19.586Z,101878.69
2022-12-05T15:31:06.940Z,101869.13
2022-12-05T15:33:57.639Z,101884.31
2022-12-05T15:36:48.548Z,101887.78
2022-12-05T15:39:53.954Z,101890.19
2022-12-05T15:42:43.419Z,101898.94
2022-12-05T15:45:30.451Z,101885.94
2022-12-05T15:48:22.552Z,101898.09
2022-12-05T15:51:08.398Z,101900.97
2022-12-05T15:54:00.949Z,101904.06
2022-12-05T15:56:57.934Z,101912.50
2022-12-05T15:59:50.561Z,101908.78
2022-12-05T16:02:48.448Z,101907.81
2022-12-05T16:05:46.135Z,101922.03
2022-12-05T16:08:40.697Z,101910.25
2022-12-05T16:11:26.183Z,101913.53
2022-12-05T16:14:18.255Z,101890.47
2022-12-05T16:17:16.875Z,101925.94
2022-12-05T16:20:22.991Z,101920.53
2022-12-05T16:23:28.507Z,101914.69
2022-12-05T16:26:13.705Z,101903.53
2022-12-05T16:29:02.446Z,101909.50
2022-12-05T16:31:54.917Z,101919.53
2022-12-05T16:34:41.087Z,101917.78
2022-12-05T16:37:28.306Z,101918.63
2022-12-05T16:40:22.871Z,101922.56
2022-12-05T16:43:20.523Z,101929.69
2022-12-05T16:46:12.872Z,101928.91
2022-12-05T16:49:21.272Z,101926.91
2022-12-05T16:52:09.452Z,101940.81
2022-12-05T16:54:54.927Z,101940.97
2022-12-05T16:57:40.049Z,101932.72
2022-12-05T17:00:25.050Z,101939.25
2022-12-05T17:03:33.514Z,101923.38
2022-12-05T17:06:18.999Z,101946.38
2022-12-05T17:09:03.887Z,101951.22
2022-12-05T17:11:52.813Z,101930.88
2022-12-05T17:14:38.127Z,101932.13
2022-12-05T17:17:23.246Z,101932.38
2022-12-05T17:20:17.366Z,101954.78
2022-12-05T17:23:02.352Z,101948.59
2022-12-05T17:25:51.229Z,101922.34
2022-12-05T17:28:36.412Z,101949.84
2022-12-05T17:31:23.774Z,101942.13
2022-12-05T17:34:17.707Z,101952.41
2022-12-05T17:37:02.992Z,101938.00
2022-12-05T17:39:48.292Z,101958.75
2022-12-05T17:42:33.308Z,101958.97
2022-12-05T17:45:18.462Z,101959.81
2022-12-05T17:48:03.900Z,101948.09
2022-12-05T17:50:49.724Z,101946.50
2022-12-05T17:53:34.713Z,101949.09
2022-12-05T17:56:20.202Z,101950.97
2022-12-05T17:59:07.408Z,101959.72
2022-12-05T18:01:52.792Z,101955.06
2022-12-05T18:04:38.491Z,101970.59
2022-12-05T18:07:23.428Z,101987.31
2022-12-05T18:10:13.065Z,101979.56
2022-12-05T18:12:58.537Z,101987.22
2022-12-05T18:15:46.119Z,101990.91
2022-12-05T18:18:31.430Z,101995.19
2022-12-05T18:21:16.687Z,101979.22
2022-12-05T18:24:01.871Z,101991.09
2022-12-05T18:26:47.599Z,101995.41
2022-12-05T18:29:32.493Z,101990.34
2022-12-05T18:32:19.356Z,101995.53
2022-12-05T18:35:11.310Z,102006.03
2022-12-05T18:37:58.298Z,101997.44
2022-12-05T18:40:43.330Z,101999.97
2022-12-05T18:43:28.491Z,101999.03
2022-12-05T18:46:13.524Z,102001.59
2022-12-05T18:49:03.059Z,102004.94
2022-12-05T18:51:49.069Z,102002.41
2022-12-05T18:54:34.134Z,101976.78
2022-12-05T18:57:19.196Z,101986.22
2022-12-05T19:00:05.973Z,101987.13
2022-12-05T19:02:50.940Z,102013.69
2022-12-05T19:05:36.442Z,102012.75
2022-12-05T19:08:22.609Z,102015.31
2022-12-05T19:11:08.044Z,102012.72
2022-12-05T19:14:02.439Z,102005.38
2022-12-05T19:16:58.053Z,101995.72
2022-12-05T19:19:44.664Z,102017.13
2022-12-05T19:22:30.533Z,102017.28
2022-12-05T19:25:15.460Z,102024.22
2022-12-05T19:28:00.644Z,102010.47
2022-12-05T19:30:45.456Z,102014.56
2022-12-05T19:33:36.062Z,102028.50
2022-12-05T19:36:23.822Z,102032.03
2022-12-05T19:39:14.314Z,102033.84
2022-12-05T19:42:00.218Z,102029.69
2022-12-05T19:44:45.787Z,102032.22
2022-12-05T19:47:31.029Z,102025.47
2022-12-05T19:50:16.205Z,101996.63
2022-12-05T19:53:01.438Z,102020.63
2022-12-05T19:55:46.681Z,102034.25
2022-12-05T19:58:32.775Z,102018.16
2022-12-05T20:01:30.486Z,102040.63
2022-12-05T20:04:16.602Z,102038.16
2022-12-05T20:07:02.154Z,102046.94
2022-12-05T20:09:47.447Z,102043.44
2022-12-05T20:12:32.776Z,102039.97
2022-12-05T20:15:17.749Z,102043.59
2022-12-05T20:18:03.089Z,102052.00
2022-12-05T20:21:00.014Z,102046.69
2022-12-05T20:23:46.153Z,102047.50
2022-12-05T20:26:35.928Z,102057.94
2022-12-05T20:29:21.066Z,102046.66
2022-12-05T20:32:06.326Z,102045.00
2022-12-05T20:34:51.579Z,102050.31
2022-12-05T20:37:36.997Z,102034.16
2022-12-05T20:40:22.385Z,102042.63
2022-12-05T20:43:08.085Z,102049.50
2022-12-05T20:45:52.954Z,102052.03
2022-12-05T20:48:38.241Z,102045.88
2022-12-05T20:51:24.655Z,102048.44
2022-12-05T20:54:12.627Z,102052.03
2022-12-05T20:56:57.838Z,102051.38
2022-12-05T20:59:42.932Z,102053.00
2022-12-05T21:02:28.326Z,102049.50
2022-12-05T21:05:13.901Z,102046.16
2022-12-05T21:07:59.200Z,102058.28
2022-12-05T21:10:46.059Z,102037.91
2022-12-05T21:13:31.808Z,102049.88
2022-12-05T21:16:20.908Z,102057.81
2022-12-05T21:19:06.045Z,102048.56
2022-12-05T21:21:53.758Z,102057.00
2022-12-05T21:24:38.787Z,102060.41
2022-12-05T21:27:23.953Z,102067.38
2022-12-05T21:30:09.961Z,102065.50
2022-12-05T21:32:55.782Z,102063.84
2022-12-05T21:35:40.914Z,102062.09
2022-12-05T21:38:26.186Z,102034.06
2022-12-05T21:41:12.060Z,102046.06
2022-12-05T21:43:57.406Z,102054.03
2022-12-05T21:46:42.802Z,102073.69
2022-12-05T21:49:27.988Z,102062.41
2022-12-05T21:52:13.234Z,102070.00
2022-12-05T21:54:58.288Z,102067.59
2022-12-05T21:57:43.302Z,102072.69
2022-12-05T22:00:28.314Z,102070.13
2022-12-05T22:03:14.803Z,102063.31
2022-12-05T22:06:05.643Z,102065.75
2022-12-05T22:08:51.112Z,102063.31
2022-12-05T22:11:36.501Z,102035.84
2022-12-05T22:14:21.422Z,102064.28
2022-12-05T22:17:06.364Z,102046.28
2022-12-05T22:19:51.642Z,102052.44
2022-12-05T22:22:36.621Z,102046.41
2022-12-05T22:25:21.962Z,102050.63
2022-12-05T22:28:06.916Z,102054.97
2022-12-05T22:30:54.931Z,102055.16
2022-12-05T22:33:40.624Z,102063.69
2022-12-05T22:36:25.553Z,102054.22
2022-12-05T22:39:12.844Z,102032.81
2022-12-05T22:41:58.416Z,102058.50
2022-12-05T22:44:44.822Z,102040.59
2022-12-05T22:47:29.809Z,102032.91
2022-12-05T22:50:15.015Z,102052.69
2022-12-05T22:53:00.187Z,102050.97
2022-12-05T22:55:45.140Z,102033.78
2022-12-05T22:58:30.459Z,102052.66
2022-12-05T23:01:24.269Z,102054.44
2022-12-05T23:04:12.593Z,102050.16
2022-12-05T23:06:57.882Z,102050.25
2022-12-05T23:09:42.798Z,102059.13
2022-12-05T23:12:27.872Z,102035.28
2022-12-05T23:15:13.396Z,102036.34
2022-12-05T23:17:58.571Z,102046.66
2022-12-05T23:20:43.883Z,102059.44
2022-12-05T23:23:28.768Z,102069.75
2022-12-05T23:26:14.410Z,102061.97
2022-12-05T23:28:59.748Z,102045.00
2022-12-05T23:31:45.225Z,102062.03
2022-12-05T23:34:30.637Z,102066.34
2022-12-05T23:37:15.862Z,102034.81
2022-12-05T23:40:01.487Z,102050.09
2022-12-05T23:42:46.968Z,102050.09
2022-12-05T23:45:31.969Z,102067.25
2022-12-05T23:48:16.824Z,102059.50
2022-12-05T23:51:05.497Z,102042.47
2022-12-05T23:53:56.381Z,102061.59
2022-12-05T23:56:42.083Z,102067.69
2022-12-05T23:59:26.972Z,102058.97
